Brookeville, MD (20833)

7:59 PM EST on January 31, 2015 (GMT -0500)
Triadelphia Reservoir | Change Station
CLOSE
Current Station
Personal Weather Station
Location: Brookeville, MD
Elevation: 463 ft
Nearby Weather Stations

Elev 463 ft 39.19 °N, 77.02 °W | Updated 25 minutes ago

Clear
Clear
22.2 °F
Feels Like 22 °F
N
0.0
Wind Variable Wind from West
Gusts 0.0 mph

Today
High -- | Low -- °F
--% Chance of Precip.
Yesterday
High -- | Low -- °F
Precip. -- in
7:16 AM 5:27 PM
Waxing Gibbous, 92% visible
Pressure 30.29 in
Visibility 10.0 miles
Clouds Clear
Windchill 22 °F
Dew Point 8 °F
Humidity 54%
Rainfall 0.00 in
Snow Depth Not available.
UV 0 out of 12
Pollen .30 out of 12
Air Quality Not available.
Flu Activity Not available.
METAR KGAI 010055Z 00000KT 10SM CLR M06/M13 A3029 RMK AO1

More Conditions Fewer Conditions

Pressure 30.29 in
Visibility 10.0 miles
Clouds Clear
Windchill 22 °F
Dew Point 8 °F
Humidity 54%
Rainfall 0.00 in
Snow Depth Not available.
UV 0 out of 12
Pollen .30 out of 12
Air Quality Not available.
Flu Activity Not available.
METAR KGAI 010055Z 00000KT 10SM CLR M06/M13 A3029 RMK AO1

More Conditions Fewer Conditions

10-Day Weather Forecast

Almanac

Astronomy

Jan. 31, 2015 Rise Set
Actual Time
Civil Twilight
Nautical Twilight
Astronomical Twilight
Moon
Length of Visible Light
Length of Day
Tomorrow will be .
, % of the Moon is Illuminated

Today's Extremes

State Highs State Lows

Community

WunderPhotos

Upload Photos

1,792,265 photos uploaded!

WunderBlogs® & News

Nearby

Air Quality

  Air Quality AQ Index Pollutant
Not available.

Snow Depth

Station Depth Elevation

Earthquake Activity

City Distance Mag. Time & Date
Minimum magnitude displayed is 2.5.

Coastal Water Temperatures

Place Temperature

Nearby Weather Stations